TW-0030 weather

Tungs’ Taichung Metro Harbor Hospital Helipad
Taichung, Taichung (city), Taiwan

Public forecast

Using degrees Celsius for public forecast. Weather courtesy of forecast.io.

METAR (pilot weather report)

Closest report is Taichung Ching Chuang Kang Airport, 4.4 nm (8.2 km) ENE. Retrieved 2019/07/22 09:37 UTC (0 seconds ago):

RCMQ 220937Z 27005KT 5000 RA BR SCT010 BKN020 OVC040 27/25 Q1007 NOSIG RMK A2975

TAF (pilot weather forecast)

Closest forecast is Taichung Ching Chuang Kang Airport, 4.4 nm (8.2 km) ENE. Retrieved 2019/07/22 06:21 UTC (3 hours ago):

TAF RCMQ 220500Z 2206/2306 24010KT 9999 FEW012 BKN025 BKN080 TX31/2306Z TN25/2221Z TEMPO 2207/2212 8000 -RA FEW012 BKN016 BKN040 BECMG 2213/2216 FEW012 SCT060 TEMPO 2218/2223 FEW012 BKN100 BECMG 2302/2305 FEW012 BKN050